Sokodé Airport

Jump to: basic info | weather | comments

Related pages: nearby airports | nearby navaids | notams | map

Basic information (top)

Codes: DXSK
Location: lon 8.983000, lat 1.150000, elev 1,214 ft / 370 m msl
Status: small_airport
Scheduled airline service: no
Links: Wikipedia Mobile

Weather (top)

Current conditions (rec'd 2014/04/19 12:00Z):

DXSK 191200Z 14004KT 9999 FEW016 BKN260 34/19 Q////

Airport forecast for Niamtougou International Airport 47nm (87km) N (rec'd 2014/04/20 00:17Z):

TAF DXNG 192300Z 2000/2018 24006KT 9999 FEW012 PROB30 
      TEMPO 2003/2009 TS SCT014 FEW020CB 
      TEMPO 2016/2022 4000 TSRA BKN012 FEW020CB

Latest comments (top)

No comments yet for Sokodé Airport

More... (top)

See also NOTAMs and nearby airports and navaids, or visit the Sokodé Airport page at the main OurAirports website..